Meteo Giornale » Osservazioni meteo Stati Uniti (USA) » Wichita Colonel James Jabara
ore: 06:54 - Osservazioni Meteo Wichita Colonel James Jabara
Lat. 37° 44' N Lon. 97° 13' W Alt. 432 metri s.l.m.
24 °C
Sereno
Temp. 24 Ore
24 °C
39 °C
Sud
14.8 Km/h
Dew point 14 °C
Umidità 53 %
Visibilità 10 Km
Il sole sorge alle ore 06:59
Il sole tramonta alle ore 19:58
| Data e Ora | Cielo e Fenomeni | T °C | DP °C | Um. % | Pres. hPa | Vis. km | Vento km/h | |
|---|---|---|---|---|---|---|---|---|
| Oggi h: 06:54 | Sereno | 24 | 14 | 53 | 1016 | 10 | S 14.8 | |
| Oggi h: 05:54 | Sereno | 26 | 14 | 47 | 1016 | 10 | S/SO 14.8 | |
| Oggi h: 04:54 | Sereno | 27 | 14 | 44 | 1016 | 10 | S/SO 16.7 | |
| Oggi h: 03:54 | Sereno | 28 | 14 | 42 | 1015 | 10 | S/SO 18.5 | |
| Oggi h: 02:54 | Sereno | 26 | 14 | 47 | 1015 | 10 | S 11.1 | |
| Oggi h: 01:54 | Sereno | 27 | 14 | 44 | 1015 | 10 | S 14.8 | |
| Oggi h: 00:54 | Sereno | 27 | 15 | 47 | 1015 | 10 | S 13 | |
| Ieri h: 23:54 | Sereno | 28 | 15 | 45 | 1015 | 10 | S 13 | |
| Ieri h: 22:54 | Sereno | 29 | 15 | 42 | 1015 | 10 | S 13 | |
| Ieri h: 21:54 | Sereno | 31 | 15 | 37 | 1014 | 10 | S/SE 14.8 | |
| Ieri h: 20:54 | Sereno | 32 | 15 | 35 | 1013 | 10 | S/SE 13 | |
| Ieri h: 19:54 | Sereno | 34 | 14 | 30 | 1013 | 10 | S/SE 11.1 | |
| Ieri h: 18:54 | Sereno | 36 | 13 | 25 | 1013 | 10 | S 18.5 | |
| Ieri h: 17:54 | Sereno | 37 | 13 | 23 | 1013 | 10 | S 14.8 | |
| Ieri h: 16:54 | Sereno | 38 | 12 | 21 | 1013 | 10 | S 24 | |
| Ieri h: 15:54 | Sereno | 39 | 14 | 22 | 1014 | 10 | S 22.2 | |
| Ieri h: 14:54 | Sereno | 39 | 15 | 24 | 1014 | 10 | S 16.7 | |
| Ieri h: 13:54 | Sereno | 38 | 16 | 27 | 1014 | 10 | S/SE 25.9 | |
| Ieri h: 12:54 | Sereno | 37 | 17 | 30 | 1015 | 10 | S/SO 31.5 | |
| Ieri h: 11:54 | Sereno | 36 | 17 | 32 | 1016 | 10 | S 24 | |
| Ieri h: 10:54 | Sereno | 33 | 17 | 38 | 1016 | 10 | S 16.7 | |
| Ieri h: 09:54 | Sereno | 31 | 16 | 40 | 1016 | 10 | S/SO 18.5 | |
| Ieri h: 08:54 | Sereno | 29 | 16 | 45 | 1016 | 10 | S 20.3 | |
| Ieri h: 07:54 | Sereno | 26 | 15 | 50 | 1015 | 10 | S 14.8 | |



